sensor_id;sensor_type;location;lat;lon;timestamp;pressure;altitude;pressure_sealevel;temperature;humidity
57594;BME280;43423;46.510;6.686;2022-08-01T00:00:13;96592.38;;;22.89;46.60
57594;BME280;43423;46.510;6.686;2022-08-01T00:02:59;96595.13;;;22.81;46.33
57594;BME280;43423;46.510;6.686;2022-08-01T00:05:24;96590.66;;;22.78;46.57
57594;BME280;43423;46.510;6.686;2022-08-01T00:07:50;96592.31;;;22.73;46.93
57594;BME280;43423;46.510;6.686;2022-08-01T00:10:16;96605.03;;;22.74;47.48
57594;BME280;43423;46.510;6.686;2022-08-01T00:12:42;96590.81;;;22.72;47.46
57594;BME280;43423;46.510;6.686;2022-08-01T00:15:10;96594.00;;;22.69;46.80
57594;BME280;43423;46.510;6.686;2022-08-01T00:17:37;96600.72;;;22.66;47.50
57594;BME280;43423;46.510;6.686;2022-08-01T00:20:06;96594.16;;;22.63;47.87
57594;BME280;43423;46.510;6.686;2022-08-01T00:22:33;96598.44;;;22.56;47.80
57594;BME280;43423;46.510;6.686;2022-08-01T00:24:59;96594.53;;;22.52;46.98
57594;BME280;43423;46.510;6.686;2022-08-01T00:27:25;96593.38;;;22.47;48.00
57594;BME280;43423;46.510;6.686;2022-08-01T00:29:50;96592.97;;;22.43;47.60
57594;BME280;43423;46.510;6.686;2022-08-01T00:32:16;96597.84;;;22.43;48.18
57594;BME280;43423;46.510;6.686;2022-08-01T00:34:41;96601.38;;;22.36;48.40
57594;BME280;43423;46.510;6.686;2022-08-01T00:37:07;96602.28;;;22.31;48.26
57594;BME280;43423;46.510;6.686;2022-08-01T00:39:33;96604.34;;;22.30;47.55
57594;BME280;43423;46.510;6.686;2022-08-01T00:41:59;96600.78;;;22.29;48.01
57594;BME280;43423;46.510;6.686;2022-08-01T00:44:26;96602.28;;;22.31;47.82
57594;BME280;43423;46.510;6.686;2022-08-01T00:46:51;96600.41;;;22.33;48.01
57594;BME280;43423;46.510;6.686;2022-08-01T00:49:17;96598.56;;;22.28;47.85
57594;BME280;43423;46.510;6.686;2022-08-01T00:51:42;96593.69;;;22.28;48.90
57594;BME280;43423;46.510;6.686;2022-08-01T00:54:08;96595.75;;;22.28;48.75
57594;BME280;43423;46.510;6.686;2022-08-01T00:56:33;96594.22;;;22.27;48.38
57594;BME280;43423;46.510;6.686;2022-08-01T00:58:59;96595.75;;;22.28;48.78
57594;BME280;43423;46.510;6.686;2022-08-01T01:01:25;96598.91;;;22.24;48.06
57594;BME280;43423;46.510;6.686;2022-08-01T01:03:51;96590.28;;;22.15;48.75
57594;BME280;43423;46.510;6.686;2022-08-01T01:06:39;96598.16;;;22.24;46.87
57594;BME280;43423;46.510;6.686;2022-08-01T01:09:17;96595.75;;;22.28;46.70
57594;BME280;43423;46.510;6.686;2022-08-01T01:12:51;96596.31;;;22.34;45.54
57594;BME280;43423;46.510;6.686;2022-08-01T01:15:08;96593.78;;;22.51;44.19
57594;BME280;43423;46.510;6.686;2022-08-01T01:17:46;96591.50;;;22.50;44.36
57594;BME280;43423;46.510;6.686;2022-08-01T01:20:14;96595.47;;;22.54;44.66
57594;BME280;43423;46.510;6.686;2022-08-01T01:25:39;96594.56;;;22.75;43.51
57594;BME280;43423;46.510;6.686;2022-08-01T01:28:14;96591.59;;;22.80;43.44
57594;BME280;43423;46.510;6.686;2022-08-01T01:30:43;96595.13;;;22.81;43.48
57594;BME280;43423;46.510;6.686;2022-08-01T01:33:11;96600.91;;;22.60;43.77
57594;BME280;43423;46.510;6.686;2022-08-01T01:35:42;96603.13;;;22.54;43.83
57594;BME280;43423;46.510;6.686;2022-08-01T01:38:18;96600.06;;;22.37;44.87
57594;BME280;43423;46.510;6.686;2022-08-01T01:40:45;96607.91;;;22.38;44.57
57594;BME280;43423;46.510;6.686;2022-08-01T01:43:12;96602.63;;;22.27;45.25
57594;BME280;43423;46.510;6.686;2022-08-01T01:45:40;96607.06;;;22.15;46.20
57594;BME280;43423;46.510;6.686;2022-08-01T01:48:09;96602.94;;;22.08;47.35
57594;BME280;43423;46.510;6.686;2022-08-01T01:50:36;96603.97;;;21.97;47.35
57594;BME280;43423;46.510;6.686;2022-08-01T01:53:04;96615.72;;;21.96;47.39
57594;BME280;43423;46.510;6.686;2022-08-01T01:55:30;96611.41;;;21.95;46.96
57594;BME280;43423;46.510;6.686;2022-08-01T01:57:57;96606.56;;;21.95;46.57
57594;BME280;43423;46.510;6.686;2022-08-01T02:00:23;96600.41;;;21.89;47.50
57594;BME280;43423;46.510;6.686;2022-08-01T02:02:52;96600.72;;;21.86;48.19
57594;BME280;43423;46.510;6.686;2022-08-01T02:05:19;96599.94;;;21.78;49.38
57594;BME280;43423;46.510;6.686;2022-08-01T02:07:46;96602.13;;;21.71;49.86
57594;BME280;43423;46.510;6.686;2022-08-01T02:10:12;96595.78;;;21.71;50.17
57594;BME280;43423;46.510;6.686;2022-08-01T02:12:43;96602.69;;;21.70;49.09
57594;BME280;43423;46.510;6.686;2022-08-01T02:15:12;96601.94;;;21.69;49.47
57594;BME280;43423;46.510;6.686;2022-08-01T02:17:44;96599.84;;;21.62;49.36
57594;BME280;43423;46.510;6.686;2022-08-01T02:20:12;96603.00;;;21.59;49.59
57594;BME280;43423;46.510;6.686;2022-08-01T02:22:44;96605.50;;;21.70;47.91
57594;BME280;43423;46.510;6.686;2022-08-01T02:25:29;96607.44;;;21.54;49.38
57594;BME280;43423;46.510;6.686;2022-08-01T02:28:00;96611.31;;;21.80;47.06
57594;BME280;43423;46.510;6.686;2022-08-01T02:30:33;96608.53;;;21.80;47.51
57594;BME280;43423;46.510;6.686;2022-08-01T02:33:07;96607.53;;;21.69;47.81
57594;BME280;43423;46.510;6.686;2022-08-01T02:35:37;96606.47;;;21.80;47.71
57594;BME280;43423;46.510;6.686;2022-08-01T02:38:05;96607.59;;;21.77;47.28
57594;BME280;43423;46.510;6.686;2022-08-01T02:40:38;96597.78;;;21.63;47.97
57594;BME280;43423;46.510;6.686;2022-08-01T02:43:05;96603.09;;;21.74;47.77
57594;BME280;43423;46.510;6.686;2022-08-01T02:45:33;96598.91;;;21.60;48.24
57594;BME280;43423;46.510;6.686;2022-08-01T02:48:10;96596.94;;;21.47;48.93
57594;BME280;43423;46.510;6.686;2022-08-01T02:50:38;96600.44;;;21.40;49.72
57594;BME280;43423;46.510;6.686;2022-08-01T02:53:06;96591.28;;;21.39;49.48
57594;BME280;43423;46.510;6.686;2022-08-01T02:55:36;96592.88;;;21.56;49.10
57594;BME280;43423;46.510;6.686;2022-08-01T02:58:04;96596.38;;;21.49;49.28
57594;BME280;43423;46.510;6.686;2022-08-01T03:00:31;96603.03;;;21.38;49.10
57594;BME280;43423;46.510;6.686;2022-08-01T03:02:59;96587.59;;;21.24;50.51
57594;BME280;43423;46.510;6.686;2022-08-01T03:05:25;96594.84;;;21.19;50.52
57594;BME280;43423;46.510;6.686;2022-08-01T03:07:54;96585.84;;;21.13;51.40
57594;BME280;43423;46.510;6.686;2022-08-01T03:10:21;96586.53;;;21.06;53.00
57594;BME280;43423;46.510;6.686;2022-08-01T03:12:48;96590.56;;;20.97;53.45
57594;BME280;43423;46.510;6.686;2022-08-01T03:15:15;96579.38;;;20.97;53.93
57594;BME280;43423;46.510;6.686;2022-08-01T03:17:43;96585.91;;;21.00;53.34
57594;BME280;43423;46.510;6.686;2022-08-01T03:20:11;96590.56;;;20.97;53.18
57594;BME280;43423;46.510;6.686;2022-08-01T03:22:38;96584.78;;;20.95;53.71
57594;BME280;43423;46.510;6.686;2022-08-01T03:25:05;96583.72;;;20.85;53.99
57594;BME280;43423;46.510;6.686;2022-08-01T03:27:32;96583.94;;;20.87;53.54
57594;BME280;43423;46.510;6.686;2022-08-01T03:29:59;96591.66;;;20.94;51.83
57594;BME280;43423;46.510;6.686;2022-08-01T03:32:29;96588.69;;;21.21;50.13
57594;BME280;43423;46.510;6.686;2022-08-01T03:34:55;96589.00;;;21.30;49.77
57594;BME280;43423;46.510;6.686;2022-08-01T03:37:27;96586.75;;;21.29;50.12
57594;BME280;43423;46.510;6.686;2022-08-01T03:40:30;96598.88;;;21.31;49.16
57594;BME280;43423;46.510;6.686;2022-08-01T03:43:02;96602.78;;;21.28;49.29
57594;BME280;43423;46.510;6.686;2022-08-01T03:45:35;96592.72;;;21.33;49.11
57594;BME280;43423;46.510;6.686;2022-08-01T03:48:05;96603.22;;;21.40;48.84
57594;BME280;43423;46.510;6.686;2022-08-01T03:50:34;96598.03;;;21.23;49.00
57594;BME280;43423;46.510;6.686;2022-08-01T03:53:02;96590.13;;;21.14;49.14
57594;BME280;43423;46.510;6.686;2022-08-01T03:55:31;96595.66;;;21.06;49.15
57594;BME280;43423;46.510;6.686;2022-08-01T03:57:59;96605.34;;;21.05;49.38
57594;BME280;43423;46.510;6.686;2022-08-01T04:00:26;96602.13;;;21.01;49.41
57594;BME280;43423;46.510;6.686;2022-08-01T04:02:53;96602.41;;;20.90;49.67
57594;BME280;43423;46.510;6.686;2022-08-01T04:05:18;96603.28;;;20.85;49.97
57594;BME280;43423;46.510;6.686;2022-08-01T04:07:48;96599.91;;;20.79;50.33
57594;BME280;43423;46.510;6.686;2022-08-01T04:10:24;96593.75;;;20.80;50.00
57594;BME280;43423;46.510;6.686;2022-08-01T04:12:50;96601.41;;;20.80;50.21
57594;BME280;43423;46.510;6.686;2022-08-01T04:15:15;96599.34;;;20.80;50.02
57594;BME280;43423;46.510;6.686;2022-08-01T04:17:41;96600.66;;;20.79;50.68
57594;BME280;43423;46.510;6.686;2022-08-01T04:20:06;96595.94;;;20.74;50.38
57594;BME280;43423;46.510;6.686;2022-08-01T04:22:33;96596.75;;;20.82;49.78
57594;BME280;43423;46.510;6.686;2022-08-01T04:25:00;96594.72;;;20.83;49.81
57594;BME280;43423;46.510;6.686;2022-08-01T04:27:32;96596.00;;;20.82;49.79
57594;BME280;43423;46.510;6.686;2022-08-01T04:30:01;96597.63;;;20.77;50.36
57594;BME280;43423;46.510;6.686;2022-08-01T04:32:29;96601.50;;;20.74;50.70
57594;BME280;43423;46.510;6.686;2022-08-01T04:34:57;96602.19;;;20.67;51.37
57594;BME280;43423;46.510;6.686;2022-08-01T04:37:25;96605.34;;;20.84;49.83
57594;BME280;43423;46.510;6.686;2022-08-01T04:39:54;96604.25;;;20.87;50.01
57594;BME280;43423;46.510;6.686;2022-08-01T04:42:21;96604.34;;;20.95;49.70
57594;BME280;43423;46.510;6.686;2022-08-01T04:44:47;96618.09;;;21.14;48.68
57594;BME280;43423;46.510;6.686;2022-08-01T04:47:12;96612.25;;;21.04;49.37
57594;BME280;43423;46.510;6.686;2022-08-01T04:49:39;96620.06;;;21.06;49.30
57594;BME280;43423;46.510;6.686;2022-08-01T04:52:05;96619.88;;;21.04;49.71
57594;BME280;43423;46.510;6.686;2022-08-01T04:54:34;96609.78;;;21.01;49.86
57594;BME280;43423;46.510;6.686;2022-08-01T04:57:05;96608.91;;;21.06;49.43
57594;BME280;43423;46.510;6.686;2022-08-01T04:59:37;96610.25;;;21.12;49.25
57594;BME280;43423;46.510;6.686;2022-08-01T05:02:17;96615.72;;;21.18;48.99
57594;BME280;43423;46.510;6.686;2022-08-01T05:04:45;96610.81;;;21.11;49.84
57594;BME280;43423;46.510;6.686;2022-08-01T05:07:11;96615.31;;;21.14;49.62
57594;BME280;43423;46.510;6.686;2022-08-01T05:09:38;96613.25;;;21.14;49.97
57594;BME280;43423;46.510;6.686;2022-08-01T05:12:05;96615.16;;;21.19;49.79
57594;BME280;43423;46.510;6.686;2022-08-01T05:14:31;96616.53;;;21.26;49.41
57594;BME280;43423;46.510;6.686;2022-08-01T05:17:02;96617.06;;;21.25;50.08
57594;BME280;43423;46.510;6.686;2022-08-01T05:19:30;96622.47;;;21.23;49.84
57594;BME280;43423;46.510;6.686;2022-08-01T05:22:00;96630.97;;;21.59;47.93
57594;BME280;43423;46.510;6.686;2022-08-01T05:24:27;96620.81;;;21.48;48.17
57594;BME280;43423;46.510;6.686;2022-08-01T05:26:54;96626.19;;;21.67;48.18
57594;BME280;43423;46.510;6.686;2022-08-01T05:29:20;96624.34;;;21.69;47.93
57594;BME280;43423;46.510;6.686;2022-08-01T05:31:45;96619.09;;;21.66;48.22
57594;BME280;43423;46.510;6.686;2022-08-01T05:34:11;96622.63;;;21.66;48.65
57594;BME280;43423;46.510;6.686;2022-08-01T05:36:36;96622.88;;;21.76;48.19
57594;BME280;43423;46.510;6.686;2022-08-01T05:39:03;96622.63;;;21.66;48.78
57594;BME280;43423;46.510;6.686;2022-08-01T05:41:30;96631.38;;;21.63;49.90
57594;BME280;43423;46.510;6.686;2022-08-01T05:43:55;96624.13;;;21.67;49.47
57594;BME280;43423;46.510;6.686;2022-08-01T05:46:20;96623.25;;;21.72;49.48
57594;BME280;43423;46.510;6.686;2022-08-01T05:48:46;96629.88;;;21.90;48.90
57594;BME280;43423;46.510;6.686;2022-08-01T05:51:11;96627.84;;;21.91;49.37
57594;BME280;43423;46.510;6.686;2022-08-01T05:53:37;96634.22;;;21.99;49.27
57594;BME280;43423;46.510;6.686;2022-08-01T05:56:03;96627.63;;;22.17;48.61
57594;BME280;43423;46.510;6.686;2022-08-01T05:58:28;96628.16;;;22.16;48.54
57594;BME280;43423;46.510;6.686;2022-08-01T06:00:54;96628.91;;;22.16;49.04
57594;BME280;43423;46.510;6.686;2022-08-01T06:03:19;96631.75;;;22.24;48.08
57594;BME280;43423;46.510;6.686;2022-08-01T06:05:45;96639.19;;;22.14;49.15
57594;BME280;43423;46.510;6.686;2022-08-01T06:08:10;96634.75;;;22.26;48.11
57594;BME280;43423;46.510;6.686;2022-08-01T06:10:36;96645.81;;;22.32;48.07
57594;BME280;43423;46.510;6.686;2022-08-01T06:13:01;96642.81;;;22.29;48.84
57594;BME280;43423;46.510;6.686;2022-08-01T06:15:29;96648.44;;;22.37;48.41
57594;BME280;43423;46.510;6.686;2022-08-01T06:17:55;96641.91;;;22.42;48.03
57594;BME280;43423;46.510;6.686;2022-08-01T06:20:20;96649.28;;;22.61;48.05
57594;BME280;43423;46.510;6.686;2022-08-01T06:22:46;96642.84;;;22.89;47.30
57594;BME280;43423;46.510;6.686;2022-08-01T06:25:12;96634.59;;;22.91;46.74
57594;BME280;43423;46.510;6.686;2022-08-01T06:27:37;96638.75;;;22.97;47.81
57594;BME280;43423;46.510;6.686;2022-08-01T06:30:04;96633.91;;;23.28;45.59
57594;BME280;43423;46.510;6.686;2022-08-01T06:32:30;96631.13;;;23.36;46.51
57594;BME280;43423;46.510;6.686;2022-08-01T06:34:56;96631.09;;;23.13;47.09
57594;BME280;43423;46.510;6.686;2022-08-01T06:37:22;96625.47;;;23.13;46.01
57594;BME280;43423;46.510;6.686;2022-08-01T06:39:48;96638.22;;;23.22;46.67
57594;BME280;43423;46.510;6.686;2022-08-01T06:42:14;96637.09;;;23.55;45.45
57594;BME280;43423;46.510;6.686;2022-08-01T06:44:40;96636.72;;;23.82;45.60
57594;BME280;43423;46.510;6.686;2022-08-01T06:47:06;96638.03;;;23.81;46.22
57594;BME280;43423;46.510;6.686;2022-08-01T06:49:32;96632.03;;;23.77;46.72
57594;BME280;43423;46.510;6.686;2022-08-01T06:51:57;96634.13;;;23.68;47.15
57594;BME280;43423;46.510;6.686;2022-08-01T06:54:23;96637.50;;;23.67;47.48
57594;BME280;43423;46.510;6.686;2022-08-01T06:56:48;96638.03;;;23.50;47.48
57594;BME280;43423;46.510;6.686;2022-08-01T06:59:13;96631.50;;;23.55;49.13
57594;BME280;43423;46.510;6.686;2022-08-01T07:01:39;96636.72;;;23.59;48.30
57594;BME280;43423;46.510;6.686;2022-08-01T07:04:04;96635.25;;;23.65;47.57
57594;BME280;43423;46.510;6.686;2022-08-01T07:06:30;96633.19;;;23.74;48.01
57594;BME280;43423;46.510;6.686;2022-08-01T07:08:56;96634.28;;;23.86;46.99
57594;BME280;43423;46.510;6.686;2022-08-01T07:11:23;96641.19;;;24.00;47.52
57594;BME280;43423;46.510;6.686;2022-08-01T07:13:48;96631.03;;;24.20;45.69
57594;BME280;43423;46.510;6.686;2022-08-01T07:16:15;96641.53;;;24.12;46.32
57594;BME280;43423;46.510;6.686;2022-08-01T07:18:41;96638.63;;;24.50;45.14
57594;BME280;43423;46.510;6.686;2022-08-01T07:21:06;96631.38;;;24.72;44.21
57594;BME280;43423;46.510;6.686;2022-08-01T07:23:32;96636.97;;;24.32;44.23
57594;BME280;43423;46.510;6.686;2022-08-01T07:25:57;96636.06;;;24.21;44.70
57594;BME280;43423;46.510;6.686;2022-08-01T07:28:24;96631.97;;;24.07;44.79
57594;BME280;43423;46.510;6.686;2022-08-01T07:30:50;96628.63;;;23.93;46.15
57594;BME280;43423;46.510;6.686;2022-08-01T07:33:15;96633.16;;;23.97;45.53
57594;BME280;43423;46.510;6.686;2022-08-01T07:35:40;96629.78;;;23.83;46.33
57594;BME280;43423;46.510;6.686;2022-08-01T07:38:06;96632.75;;;24.00;46.80
57594;BME280;43423;46.510;6.686;2022-08-01T07:40:32;96634.59;;;24.13;43.14
57594;BME280;43423;46.510;6.686;2022-08-01T07:42:57;96633.84;;;24.12;44.03
57594;BME280;43423;46.510;6.686;2022-08-01T07:45:23;96632.13;;;24.17;44.35
57594;BME280;43423;46.510;6.686;2022-08-01T07:47:48;96623.38;;;24.13;43.73
57594;BME280;43423;46.510;6.686;2022-08-01T07:50:16;96628.00;;;24.33;43.08
57594;BME280;43423;46.510;6.686;2022-08-01T07:52:43;96627.44;;;24.35;45.35
57594;BME280;43423;46.510;6.686;2022-08-01T07:55:09;96631.94;;;24.22;45.13
57594;BME280;43423;46.510;6.686;2022-08-01T07:57:35;96633.00;;;24.50;45.67
57594;BME280;43423;46.510;6.686;2022-08-01T08:00:04;96630.38;;;24.52;44.53
57594;BME280;43423;46.510;6.686;2022-08-01T08:02:30;96632.66;;;24.38;45.48
57594;BME280;43423;46.510;6.686;2022-08-01T08:04:55;96629.47;;;24.42;45.10
57594;BME280;43423;46.510;6.686;2022-08-01T08:07:21;96628.50;;;24.47;44.88
57594;BME280;43423;46.510;6.686;2022-08-01T08:09:46;96623.16;;;24.18;46.43
57594;BME280;43423;46.510;6.686;2022-08-01T08:12:12;96627.44;;;24.35;45.30
57594;BME280;43423;46.510;6.686;2022-08-01T08:14:38;96629.81;;;24.46;44.86
57594;BME280;43423;46.510;6.686;2022-08-01T08:17:04;96626.22;;;24.53;43.84
57594;BME280;43423;46.510;6.686;2022-08-01T08:19:30;96629.50;;;24.74;42.79
57594;BME280;43423;46.510;6.686;2022-08-01T08:21:58;96623.63;;;24.80;40.90
57594;BME280;43423;46.510;6.686;2022-08-01T08:24:23;96621.38;;;24.86;44.07
57594;BME280;43423;46.510;6.686;2022-08-01T08:26:52;96631.25;;;24.95;41.90
57594;BME280;43423;46.510;6.686;2022-08-01T08:29:19;96626.28;;;25.11;42.46
57594;BME280;43423;46.510;6.686;2022-08-01T08:31:45;96622.00;;;25.02;41.32
57594;BME280;43423;46.510;6.686;2022-08-01T08:34:11;96614.16;;;25.00;41.27
57594;BME280;43423;46.510;6.686;2022-08-01T08:36:37;96612.81;;;25.09;40.94
57594;BME280;43423;46.510;6.686;2022-08-01T08:39:02;96627.03;;;25.11;42.16
57594;BME280;43423;46.510;6.686;2022-08-01T08:41:32;96619.28;;;25.19;41.51
57594;BME280;43423;46.510;6.686;2022-08-01T08:44:04;96622.47;;;25.23;42.10
57594;BME280;43423;46.510;6.686;2022-08-01T08:46:30;96618.25;;;25.32;41.62
57594;BME280;43423;46.510;6.686;2022-08-01T08:49:01;96621.03;;;25.40;41.66
57594;BME280;43423;46.510;6.686;2022-08-01T08:51:30;96627.09;;;25.53;42.23
57594;BME280;43423;46.510;6.686;2022-08-01T08:53:57;96615.44;;;25.57;41.26
57594;BME280;43423;46.510;6.686;2022-08-01T08:56:24;96611.91;;;25.74;41.48
57594;BME280;43423;46.510;6.686;2022-08-01T08:58:50;96618.41;;;25.59;43.91
57594;BME280;43423;46.510;6.686;2022-08-01T09:01:16;96611.88;;;25.56;42.67
57594;BME280;43423;46.510;6.686;2022-08-01T09:03:43;96615.66;;;25.76;42.24
57594;BME280;43423;46.510;6.686;2022-08-01T09:06:09;96603.03;;;25.60;42.26
57594;BME280;43423;46.510;6.686;2022-08-01T09:08:35;96608.81;;;25.62;42.24
57594;BME280;43423;46.510;6.686;2022-08-01T09:11:01;96607.22;;;25.76;42.56
57594;BME280;43423;46.510;6.686;2022-08-01T09:13:27;96611.34;;;25.75;42.63
57594;BME280;43423;46.510;6.686;2022-08-01T09:15:54;96614.50;;;25.79;42.29
57594;BME280;43423;46.510;6.686;2022-08-01T09:18:37;96603.16;;;25.45;41.86
57594;BME280;43423;46.510;6.686;2022-08-01T09:21:18;96609.69;;;25.72;43.70
57594;BME280;43423;46.510;6.686;2022-08-01T09:23:52;96613.91;;;25.98;42.35
57594;BME280;43423;46.510;6.686;2022-08-01T09:26:29;96596.69;;;26.11;41.29
57594;BME280;43423;46.510;6.686;2022-08-01T09:28:55;96605.22;;;26.04;40.33
57594;BME280;43423;46.510;6.686;2022-08-01T09:31:21;96597.59;;;26.14;39.67
57594;BME280;43423;46.510;6.686;2022-08-01T09:36:12;96606.97;;;26.16;42.63
57594;BME280;43423;46.510;6.686;2022-08-01T09:38:37;96598.75;;;26.28;41.25
57594;BME280;43423;46.510;6.686;2022-08-01T09:41:03;96606.06;;;26.31;40.79
57594;BME280;43423;46.510;6.686;2022-08-01T09:43:30;96608.53;;;26.44;40.93
57594;BME280;43423;46.510;6.686;2022-08-01T09:45:57;96604.38;;;26.46;40.99
57594;BME280;43423;46.510;6.686;2022-08-01T09:48:22;96600.91;;;26.55;41.15
57594;BME280;43423;46.510;6.686;2022-08-01T09:50:52;96598.28;;;26.66;41.07
57594;BME280;43423;46.510;6.686;2022-08-01T09:53:19;96602.97;;;26.81;41.13
57594;BME280;43423;46.510;6.686;2022-08-01T09:55:45;96602.81;;;26.79;40.76
57594;BME280;43423;46.510;6.686;2022-08-01T09:58:11;96600.03;;;26.89;39.94
57594;BME280;43423;46.510;6.686;2022-08-01T10:00:38;96600.75;;;27.07;39.32
57594;BME280;43423;46.510;6.686;2022-08-01T10:03:19;96592.06;;;26.95;40.07
57594;BME280;43423;46.510;6.686;2022-08-01T10:05:45;96594.50;;;26.81;41.22
57594;BME280;43423;46.510;6.686;2022-08-01T10:08:13;96586.25;;;26.93;40.53
57594;BME280;43423;46.510;6.686;2022-08-01T10:10:38;96582.41;;;26.98;39.46
57594;BME280;43423;46.510;6.686;2022-08-01T10:13:04;96583.97;;;27.09;39.28
57594;BME280;43423;46.510;6.686;2022-08-01T10:15:30;96579.97;;;27.12;36.16
57594;BME280;43423;46.510;6.686;2022-08-01T10:17:58;96579.38;;;27.13;36.16
57594;BME280;43423;46.510;6.686;2022-08-01T10:20:27;96577.66;;;27.27;38.27
57594;BME280;43423;46.510;6.686;2022-08-01T10:22:54;96578.53;;;27.20;37.22
57594;BME280;43423;46.510;6.686;2022-08-01T10:25:21;96574.84;;;27.37;37.80
57594;BME280;43423;46.510;6.686;2022-08-01T10:27:52;96575.72;;;27.30;37.49
57594;BME280;43423;46.510;6.686;2022-08-01T10:30:20;96563.72;;;27.49;39.05
57594;BME280;43423;46.510;6.686;2022-08-01T10:32:46;96567.34;;;27.59;37.91
57594;BME280;43423;46.510;6.686;2022-08-01T10:35:12;96568.75;;;27.41;36.70
57594;BME280;43423;46.510;6.686;2022-08-01T10:37:43;96560.78;;;27.57;38.85
57594;BME280;43423;46.510;6.686;2022-08-01T10:40:14;96561.88;;;27.71;37.45
57594;BME280;43423;46.510;6.686;2022-08-01T10:42:41;96558.31;;;27.90;38.53
57594;BME280;43423;46.510;6.686;2022-08-01T10:45:09;96549.09;;;27.99;38.17
57594;BME280;43423;46.510;6.686;2022-08-01T10:47:45;96551.19;;;27.98;38.23
57594;BME280;43423;46.510;6.686;2022-08-01T10:50:19;96546.84;;;27.88;38.88
57594;BME280;43423;46.510;6.686;2022-08-01T10:55:49;96549.09;;;28.08;38.66
57594;BME280;43423;46.510;6.686;2022-08-01T10:58:23;96549.69;;;28.17;37.60
57594;BME280;43423;46.510;6.686;2022-08-01T11:03:55;96553.25;;;28.07;35.69
57594;BME280;43423;46.510;6.686;2022-08-01T11:06:25;96545.38;;;28.06;35.67
57594;BME280;43423;46.510;6.686;2022-08-01T11:08:53;96546.28;;;27.99;35.33
57594;BME280;43423;46.510;6.686;2022-08-01T11:11:20;96545.53;;;28.08;36.16
57594;BME280;43423;46.510;6.686;2022-08-01T11:16:28;96536.31;;;28.07;35.62
57594;BME280;43423;46.510;6.686;2022-08-01T11:18:55;96542.41;;;27.94;34.27
57594;BME280;43423;46.510;6.686;2022-08-01T11:21:20;96524.84;;;27.96;35.46
57594;BME280;43423;46.510;6.686;2022-08-01T11:23:50;96532.13;;;28.08;35.16
57594;BME280;43423;46.510;6.686;2022-08-01T11:26:20;96524.53;;;28.21;34.43
57594;BME280;43423;46.510;6.686;2022-08-01T11:29:15;96526.16;;;28.24;34.61
57594;BME280;43423;46.510;6.686;2022-08-01T11:31:41;96518.59;;;28.17;34.40
57594;BME280;43423;46.510;6.686;2022-08-01T11:34:07;96513.38;;;28.23;34.11
57594;BME280;43423;46.510;6.686;2022-08-01T11:36:32;96511.28;;;28.33;34.03
57594;BME280;43423;46.510;6.686;2022-08-01T11:41:28;96510.50;;;28.52;32.21
57594;BME280;43423;46.510;6.686;2022-08-01T11:52:18;96500.19;;;28.66;32.32
57594;BME280;43423;46.510;6.686;2022-08-01T11:54:50;96494.13;;;28.50;31.66
57594;BME280;43423;46.510;6.686;2022-08-01T11:57:20;96486.22;;;28.58;31.92
57594;BME280;43423;46.510;6.686;2022-08-01T11:59:48;96473.06;;;28.73;31.05
57594;BME280;43423;46.510;6.686;2022-08-01T12:02:26;96480.34;;;28.76;29.94
57594;BME280;43423;46.510;6.686;2022-08-01T12:04:59;96478.34;;;28.88;33.70
57594;BME280;43423;46.510;6.686;2022-08-01T12:07:27;96470.84;;;29.02;31.18
57594;BME280;43423;46.510;6.686;2022-08-01T12:12:34;96482.75;;;29.32;30.68
57594;BME280;43423;46.510;6.686;2022-08-01T12:15:05;96483.69;;;29.46;28.43
57594;BME280;43423;46.510;6.686;2022-08-01T12:19:58;96473.31;;;29.39;29.12
57594;BME280;43423;46.510;6.686;2022-08-01T12:22:24;96470.84;;;29.55;27.21
57594;BME280;43423;46.510;6.686;2022-08-01T12:24:51;96476.97;;;29.72;26.82
57594;BME280;43423;46.510;6.686;2022-08-01T12:27:30;96466.31;;;29.61;28.43
57594;BME280;43423;46.510;6.686;2022-08-01T12:29:57;96468.91;;;29.69;29.08
57594;BME280;43423;46.510;6.686;2022-08-01T12:32:31;96469.28;;;29.63;27.98
57594;BME280;43423;46.510;6.686;2022-08-01T12:35:09;96469.38;;;29.87;28.70
57594;BME280;43423;46.510;6.686;2022-08-01T12:37:39;96476.25;;;29.84;27.61
57594;BME280;43423;46.510;6.686;2022-08-01T12:40:15;96469.00;;;29.81;28.98
57594;BME280;43423;46.510;6.686;2022-08-01T12:42:42;96475.53;;;29.83;29.74
57594;BME280;43423;46.510;6.686;2022-08-01T12:45:09;96475.81;;;29.99;28.06
57594;BME280;43423;46.510;6.686;2022-08-01T12:47:36;96478.75;;;30.22;27.09
57594;BME280;43423;46.510;6.686;2022-08-01T12:50:15;96475.28;;;30.12;29.22
57594;BME280;43423;46.510;6.686;2022-08-01T12:52:42;96477.06;;;29.96;28.40
57594;BME280;43423;46.510;6.686;2022-08-01T12:55:18;96466.34;;;30.06;26.45
57594;BME280;43423;46.510;6.686;2022-08-01T12:57:47;96468.59;;;29.74;26.92
57594;BME280;43423;46.510;6.686;2022-08-01T13:00:25;96466.59;;;29.98;26.35
57594;BME280;43423;46.510;6.686;2022-08-01T13:03:09;96466.91;;;29.93;26.06
57594;BME280;43423;46.510;6.686;2022-08-01T13:05:45;96468.56;;;29.96;25.92
57594;BME280;43423;46.510;6.686;2022-08-01T13:08:14;96463.44;;;29.83;24.99
57594;BME280;43423;46.510;6.686;2022-08-01T13:10:41;96460.72;;;29.85;24.60
57594;BME280;43423;46.510;6.686;2022-08-01T13:13:07;96458.56;;;29.95;23.83
57594;BME280;43423;46.510;6.686;2022-08-01T13:15:35;96455.97;;;29.99;24.20
57594;BME280;43423;46.510;6.686;2022-08-01T13:18:22;96447.75;;;30.03;20.98
57594;BME280;43423;46.510;6.686;2022-08-01T13:20:48;96451.88;;;29.90;21.90
57594;BME280;43423;46.510;6.686;2022-08-01T13:23:17;96446.63;;;29.96;23.88
57594;BME280;43423;46.510;6.686;2022-08-01T13:25:55;96449.53;;;30.20;23.06
57594;BME280;43423;46.510;6.686;2022-08-01T13:28:23;96451.88;;;30.23;24.22
57594;BME280;43423;46.510;6.686;2022-08-01T13:31:01;96443.25;;;30.33;24.14
57594;BME280;43423;46.510;6.686;2022-08-01T13:33:40;96446.97;;;30.47;24.16
57594;BME280;43423;46.510;6.686;2022-08-01T13:36:06;96451.69;;;30.54;22.59